This is the latest recevied weather packets stored in our database for station/object DG7YEO-13. If no packets are shown the sender has not sent any weather packets the latest 10 day(s).
| Time | Temp. | Humidity | Pressure | Rain* | Wind** | Luminosity | Snow |
|---|---|---|---|---|---|---|---|
| 1777793525 | 18.33° C | 77% | 1011 hPa | 0 mm | - | - | - |
| 1777792625 | 17.78° C | 84% | 1010.9 hPa | 0 mm | - | - | - |
| 1777791725 | 16.67° C | 90% | 1011 hPa | 0 mm | - | - | - |
| 1777790824 | 16.11° C | 93% | 1011.1 hPa | 0.25 mm | - | - | - |
| 1777789925 | 15.56° C | 95% | 1011.3 hPa | 0.25 mm | - | - | - |
| 1777789025 | 15.56° C | 95% | 1011.1 hPa | 0.25 mm | - | - | - |
| 1777788126 | 15° C | 96% | 1010.8 hPa | 0.25 mm | - | - | - |
| 1777787225 | 15° C | 96% | 1010.8 hPa | 0 mm | - | - | - |
| 1777786325 | 14.44° C | 96% | 1010.6 hPa | 0 mm | - | - | - |
| 1777785425 | 14.44° C | 95% | 1010.8 hPa | 0 mm | - | - | - |
| 1777784525 | 14.44° C | 95% | 1010.9 hPa | 0 mm | - | - | - |
| 1777783625 | 14.44° C | 95% | 1011 hPa | 0 mm | - | - | - |
| 1777782725 | 14.44° C | 95% | 1011.1 hPa | 0 mm | - | - | - |
| 1777781825 | 14.44° C | 94% | 1011.6 hPa | 0 mm | - | - | - |
| 1777780925 | 14.44° C | 94% | 1011.5 hPa | 0 mm | - | - | - |
| 1777780025 | 14.44° C | 95% | 1011.5 hPa | 0 mm | - | - | - |
| 1777779125 | 15° C | 95% | 1011.7 hPa | 0 mm | - | - | - |
| 1777778224 | 15° C | 95% | 1011.9 hPa | 0 mm | - | - | - |
| 1777777326 | 15° C | 95% | 1011.8 hPa | 0 mm | - | - | - |
| 1777776425 | 15° C | 95% | 1011.8 hPa | 0 mm | - | - | - |
| 1777775525 | 15° C | 95% | 1011.8 hPa | 0 mm | - | - | - |
| 1777774625 | 15° C | 94% | 1011.8 hPa | 0 mm | - | - | - |
| 1777773725 | 15° C | 95% | 1011.8 hPa | 0 mm | - | - | - |
| 1777772825 | 15° C | 94% | 1012 hPa | 0 mm | - | - | - |
| 1777771925 | 15° C | 94% | 1012.1 hPa | 0 mm | - | - | - |
* Rain latest hour (hover to see other rain measurements)
** Current wind speed in m/s (hover to see current wind gust speed)